Hovedside
METAR-TAF:

METAR-TAF

Lufthavner :

Aalborg lufthavn

Aalborg, Danmark

breddegrad: 57-06N, lengdegrad: 009-51E, høyde over havet: 3 m

Gjeldene værobservasjon

Denne rapporten ble laget for 32 minutter siden, klokken 16:50 UTC
Vind 5 kt fra Vest-nordvest, skiftende mellom Vest-sørvest og Nordvest
Temperatur 18°C
Luftfuktighet 68%
Trykk 1020 hPa
Sikt 10 km eller mer

METAR: EKYT 241650Z AUTO 29005KT 250V320 9999 NCD 18/12 Q1020

Tid: 19:22 (17:22 UTC)

Varsel

Denne rapporten ble laget for 2 timer og 49 minutter siden, klokken 14:33 UTC
Varsel gyldig fra 24. klokken 15 UTC til 25. klokken 15 UTC
Vind 10 kt fra Vest
Sikt 10 km eller mer
Få skyer i en høyde av 3000 ft
Blir
fra 24. klokken 20 UTC til 24. klokken 23 UTC
Vind 3 kt fra skiftende retning
Midlertidig
fra 25. klokken 02 UTC til 25. klokken 04 UTC
Sikt: 6000 m
Grunne tåke,

TAF: EKYT 241433Z 2415/2515 28010KT 9999 FEW030 BECMG 2420/2423 VRB03KT TEMPO 2502/2504 6000 MIFG

Værobservasjoner og værvarsel for over 4000 flyplasser (METAR- og TAF-rapporter).

Tilgjengelige stasjoner er representert av de røde og gule prikkene på kartet.

Hold musepekeren over prikken for å se navnet på stasjonen.

Klikk så for å se værobservasjoner og -varsler.

For å forandre kartet kan du klikke på den grønne knappen med svart kryss for å zoome inn, på den grønne knappen med strek for å zoome ut, eller på de grønne pilene for å se tilstøtende kart.


METAR-TAF: